Time;durP1;ratioP1;P1;durP2;ratioP2;P2;SDS_P1;SDS_P2;PMS_P1;PMS_P2;Temp;Humidity;BMP_temperature;BMP_pressure;BME280_temperature;BME280_humidity;BME280_pressure;Samples;Min_cycle;Max_cycle;Signal;HPM_P1;HPM_P2
2022/03/07 00:01:40;;;;;;;11.63;6.60;;;;;;;2.91;46.81;97719.84;4992052;28;20202;-82
2022/03/07 00:04:06;;;;;;;9.52;5.90;;;;;;;3.05;46.92;97707.94;4978291;28;20584;-81
2022/03/07 00:06:31;;;;;;;10.60;6.35;;;;;;;2.95;46.94;97711.59;5005440;28;20175;-82
2022/03/07 00:08:57;;;;;;;10.95;6.32;;;;;;;2.76;47.61;97718.13;4964425;28;20698;-81
2022/03/07 00:11:22;;;;;;;10.07;5.80;;;;;;;2.94;46.81;97719.50;4956380;28;20642;-81
2022/03/07 00:13:48;;;;;;;11.30;7.03;;;;;;;3.04;46.81;97717.44;4950354;28;20237;-81
2022/03/07 00:16:13;;;;;;;9.70;6.10;;;;;;;2.82;47.19;97711.47;4983144;28;20339;-82
2022/03/07 00:18:39;;;;;;;7.60;5.07;;;;;;;2.73;47.24;97723.63;4999701;28;20271;-81
2022/03/07 00:21:06;;;;;;;12.20;5.97;;;;;;;2.80;47.55;97719.34;4964875;28;20648;-82
2022/03/07 00:23:32;;;;;;;11.13;5.75;;;;;;;2.68;47.59;97715.66;4967146;28;20162;-82
2022/03/07 00:25:57;;;;;;;9.77;5.88;;;;;;;2.45;48.28;97715.78;4981367;28;20245;-82
2022/03/07 00:28:23;;;;;;;11.07;5.50;;;;;;;2.57;47.70;97713.53;4969732;28;20194;-81
2022/03/07 00:30:48;;;;;;;9.60;5.28;;;;;;;2.45;47.54;97715.78;4950682;28;20164;-81
2022/03/07 00:33:16;;;;;;;8.85;5.53;;;;;;;2.35;47.71;97718.63;4977868;28;20195;-80
2022/03/07 00:35:41;;;;;;;9.82;5.88;;;;;;;2.38;48.45;97720.84;4950694;28;20241;-80
2022/03/07 00:38:06;;;;;;;9.93;5.18;;;;;;;2.57;47.67;97727.22;4947936;28;20285;-80
2022/03/07 00:40:32;;;;;;;10.02;5.13;;;;;;;2.27;48.82;97717.91;4967215;28;20167;-80
2022/03/07 00:42:57;;;;;;;8.35;4.70;;;;;;;2.50;48.47;97722.94;4979217;28;20477;-81
2022/03/07 00:45:23;;;;;;;14.10;5.75;;;;;;;2.35;48.10;97715.25;4981521;28;20230;-80
2022/03/07 00:47:48;;;;;;;9.80;5.60;;;;;;;2.40;48.24;97724.03;4965777;28;20171;-80
2022/03/07 00:50:13;;;;;;;8.48;5.00;;;;;;;2.43;48.03;97725.44;4983766;28;20302;-80
2022/03/07 00:52:39;;;;;;;9.70;5.10;;;;;;;2.39;48.25;97725.00;4964747;28;20202;-80
2022/03/07 00:55:05;;;;;;;12.23;5.63;;;;;;;2.38;48.31;97727.72;4980386;28;20268;-80
2022/03/07 00:57:30;;;;;;;9.13;5.00;;;;;;;2.10;48.91;97727.56;4968462;28;20213;-79
2022/03/07 00:59:55;;;;;;;8.68;5.20;;;;;;;2.47;48.51;97729.25;4949032;28;20171;-81
2022/03/07 01:02:21;;;;;;;9.18;4.55;;;;;;;2.16;49.06;97737.13;4965221;28;20263;-80
2022/03/07 01:04:46;;;;;;;10.13;4.88;;;;;;;2.31;49.12;97726.84;4980707;28;20327;-80
2022/03/07 01:07:12;;;;;;;9.27;5.53;;;;;;;2.19;48.86;97731.63;4963732;28;20249;-80
2022/03/07 01:09:37;;;;;;;8.48;5.38;;;;;;;2.34;48.61;97729.06;4982776;28;20160;-80
2022/03/07 01:12:03;;;;;;;10.05;5.05;;;;;;;2.14;49.23;97733.94;4981365;28;20735;-81
2022/03/07 01:14:29;;;;;;;8.00;4.93;;;;;;;2.16;49.16;97731.97;4982048;28;20254;-80
2022/03/07 01:16:55;;;;;;;9.02;5.40;;;;;;;2.21;49.54;97730.50;4964259;28;20283;-80
2022/03/07 01:19:20;;;;;;;10.05;6.05;;;;;;;2.13;49.38;97724.66;4969174;28;20495;-81
2022/03/07 01:21:45;;;;;;;10.88;5.57;;;;;;;2.19;49.63;97727.31;4967413;28;20271;-81
2022/03/07 01:24:11;;;;;;;10.23;5.32;;;;;;;2.32;49.14;97728.47;4977535;28;20654;-80
2022/03/07 01:26:37;;;;;;;10.32;5.55;;;;;;;2.14;50.13;97721.91;4967429;28;20244;-80
2022/03/07 01:29:03;;;;;;;13.02;5.95;;;;;;;2.14;50.03;97724.47;4959239;28;20313;-81
2022/03/07 01:31:28;;;;;;;10.98;5.75;;;;;;;2.63;49.40;97728.25;4965576;28;20226;-81
2022/03/07 01:33:54;;;;;;;8.45;5.22;;;;;;;2.16;49.81;97722.53;4975077;28;20701;-80
2022/03/07 01:36:19;;;;;;;14.15;6.13;;;;;;;2.04;50.04;97714.47;4980459;28;20092;-80
2022/03/07 01:38:44;;;;;;;9.63;5.38;;;;;;;2.22;49.65;97724.38;4982156;28;20272;-82
2022/03/07 01:41:11;;;;;;;9.60;5.57;;;;;;;2.32;49.50;97711.25;4983647;28;20176;-81
2022/03/07 01:43:36;;;;;;;10.57;5.80;;;;;;;2.25;49.75;97718.09;4968514;28;20610;-80
2022/03/07 01:46:02;;;;;;;10.20;5.43;;;;;;;2.49;49.36;97711.09;4981108;28;20206;-80
2022/03/07 01:48:27;;;;;;;8.85;5.00;;;;;;;2.11;49.96;97706.84;4964755;28;20160;-80
2022/03/07 01:50:53;;;;;;;9.98;5.60;;;;;;;2.10;50.36;97696.75;4945953;28;20211;-80
2022/03/07 01:53:20;;;;;;;8.23;5.85;;;;;;;2.13;49.96;97693.81;4961517;28;20280;-81
2022/03/07 01:55:45;;;;;;;10.98;5.40;;;;;;;2.20;50.19;97692.13;4950503;28;20341;-80
2022/03/07 01:58:11;;;;;;;10.27;5.32;;;;;;;2.25;49.48;97700.09;4965063;28;20303;-81
2022/03/07 02:00:36;;;;;;;11.27;5.32;;;;;;;2.43;49.15;97685.13;4950711;28;20280;-81
2022/03/07 02:03:01;;;;;;;11.13;5.93;;;;;;;2.40;49.66;97687.25;4976290;28;20183;-81
2022/03/07 02:05:27;;;;;;;9.23;5.63;;;;;;;2.19;50.04;97685.41;4964634;28;20277;-81
2022/03/07 02:07:54;;;;;;;9.65;5.95;;;;;;;2.08;50.42;97686.66;4960253;28;20198;-82
2022/03/07 02:10:20;;;;;;;9.75;5.38;;;;;;;1.98;50.57;97689.47;4983087;28;20193;-81
2022/03/07 02:12:45;;;;;;;8.90;5.05;;;;;;;2.12;50.34;97682.72;4951057;28;20271;-80
2022/03/07 02:15:11;;;;;;;10.20;6.13;;;;;;;1.86;51.33;97678.81;4964432;28;20640;-82
2022/03/07 02:17:36;;;;;;;11.25;6.13;;;;;;;2.30;49.94;97684.16;4945399;28;20194;-80
2022/03/07 02:20:02;;;;;;;9.18;5.78;;;;;;;1.86;50.73;97666.00;4969335;28;20690;-80
2022/03/07 02:22:28;;;;;;;9.93;5.70;;;;;;;2.26;49.91;97673.44;4983282;28;20692;-81
2022/03/07 02:24:53;;;;;;;10.73;5.15;;;;;;;2.41;49.78;97681.13;4950123;28;20269;-82
2022/03/07 02:27:18;;;;;;;8.88;5.10;;;;;;;2.68;49.03;97668.59;4970515;28;20252;-81
2022/03/07 02:29:46;;;;;;;9.88;5.50;;;;;;;2.24;50.12;97677.94;4982838;28;20167;-81
2022/03/07 02:32:11;;;;;;;10.13;5.88;;;;;;;2.22;50.14;97680.69;4981448;28;20209;-81
2022/03/07 02:34:37;;;;;;;8.82;5.22;;;;;;;2.51;49.35;97673.16;4954520;28;20738;-81
2022/03/07 02:37:03;;;;;;;8.70;4.93;;;;;;;2.77;48.85;97678.56;4969151;28;20168;-82
2022/03/07 02:39:28;;;;;;;12.15;5.78;;;;;;;2.41;49.20;97687.06;4980801;28;20290;-81
2022/03/07 02:41:55;;;;;;;10.95;5.97;;;;;;;2.33;49.85;97678.66;4964158;28;20295;-81
2022/03/07 02:44:20;;;;;;;8.93;5.10;;;;;;;1.98;50.46;97675.84;4987390;28;20183;-82
2022/03/07 02:46:46;;;;;;;8.45;5.05;;;;;;;1.87;50.62;97685.56;4968868;28;20376;-81
2022/03/07 02:49:11;;;;;;;9.38;5.63;;;;;;;2.13;50.58;97675.84;4946074;28;20193;-81
2022/03/07 02:51:37;;;;;;;8.63;5.20;;;;;;;2.04;50.60;97677.72;4950968;28;20311;-81
2022/03/07 02:54:03;;;;;;;8.73;5.10;;;;;;;2.37;49.31;97678.13;4980436;28;20175;-82
2022/03/07 02:56:28;;;;;;;8.35;4.90;;;;;;;2.44;49.43;97673.84;4963515;28;20558;-82
2022/03/07 02:58:53;;;;;;;9.10;5.45;;;;;;;2.29;49.97;97678.22;4967405;28;20334;-81
2022/03/07 03:01:19;;;;;;;9.80;4.72;;;;;;;2.16;50.04;97672.91;4953828;28;20151;-82
2022/03/07 03:03:44;;;;;;;11.65;5.72;;;;;;;1.69;51.06;97678.19;4984688;28;20362;-81
2022/03/07 03:06:10;;;;;;;9.13;5.35;;;;;;;2.00;50.21;97681.59;4977580;28;21089;-80
2022/03/07 03:08:35;;;;;;;11.05;6.20;;;;;;;2.05;50.44;97684.41;4968900;28;20197;-81
2022/03/07 03:11:01;;;;;;;8.43;4.90;;;;;;;1.83;50.31;97683.53;4970465;28;20292;-82
2022/03/07 03:13:27;;;;;;;8.20;4.68;;;;;;;1.98;49.86;97683.53;4962244;28;20359;-80
2022/03/07 03:15:53;;;;;;;6.82;4.18;;;;;;;1.78;50.31;97676.38;4965637;28;20283;-81
2022/03/07 03:18:19;;;;;;;7.47;4.30;;;;;;;1.73;49.48;97683.78;4964807;28;20745;-78
2022/03/07 03:20:48;;;;;;;6.60;3.75;;;;;;;1.14;50.61;97687.00;4970703;28;20174;-80
2022/03/07 03:23:14;;;;;;;6.72;3.33;;;;;;;1.43;49.99;97685.50;4985815;28;20300;-81
2022/03/07 03:25:39;;;;;;;5.82;3.97;;;;;;;1.40;49.93;97685.84;4945847;28;20764;-80
2022/03/07 03:28:05;;;;;;;6.03;3.55;;;;;;;1.37;49.25;97692.13;4965223;28;20320;-81
2022/03/07 03:30:31;;;;;;;7.28;3.40;;;;;;;1.26;49.85;97695.88;4971578;28;20186;-79
2022/03/07 03:32:57;;;;;;;6.40;3.55;;;;;;;1.44;49.20;97684.50;4968821;28;20209;-80
2022/03/07 03:35:23;;;;;;;5.25;3.13;;;;;;;1.12;49.56;97682.03;4961149;28;20190;-80
2022/03/07 03:37:48;;;;;;;5.60;3.40;;;;;;;1.00;50.18;97682.59;4984676;28;20648;-80
2022/03/07 03:40:13;;;;;;;5.10;3.40;;;;;;;1.10;49.59;97691.66;4964366;28;20647;-80
2022/03/07 03:42:39;;;;;;;5.30;3.10;;;;;;;1.31;48.85;97695.38;4981851;28;20280;-80
2022/03/07 03:45:08;;;;;;;6.53;3.05;;;;;;;1.00;49.17;97687.72;4969240;28;20316;-80
2022/03/07 03:47:34;;;;;;;4.63;2.90;;;;;;;0.91;50.22;97689.56;4983728;28;20289;-80
2022/03/07 03:50:00;;;;;;;5.72;2.90;;;;;;;0.81;50.44;97682.06;4983928;28;20182;-79
2022/03/07 03:52:25;;;;;;;6.35;3.35;;;;;;;1.39;48.74;97686.78;4979822;28;20724;-81
2022/03/07 03:54:55;;;;;;;5.25;2.95;;;;;;;1.68;48.07;97686.88;4963926;28;20206;-82
2022/03/07 03:57:21;;;;;;;5.20;2.88;;;;;;;1.69;47.68;97680.75;4978415;28;20711;-81
2022/03/07 03:59:47;;;;;;;4.82;3.03;;;;;;;1.83;47.33;97686.09;4964258;28;20274;-81
2022/03/07 04:02:12;;;;;;;4.93;2.92;;;;;;;1.73;47.75;97695.81;4963177;28;20259;-82
2022/03/07 04:04:38;;;;;;;3.92;2.80;;;;;;;1.68;47.87;97684.31;4967598;28;20301;-82
2022/03/07 04:07:03;;;;;;;3.75;2.75;;;;;;;2.00;47.21;97692.66;4994217;28;20223;-81
2022/03/07 04:09:29;;;;;;;4.03;3.15;;;;;;;1.49;48.17;97695.03;4986911;28;20358;-80
2022/03/07 04:11:54;;;;;;;4.15;3.00;;;;;;;1.59;47.89;97692.25;4950359;28;20202;-81
2022/03/07 04:14:20;;;;;;;4.80;3.17;;;;;;;1.29;48.07;97699.88;4956195;28;20202;-80
2022/03/07 04:16:45;;;;;;;4.90;2.60;;;;;;;1.46;48.14;97692.84;4981676;28;20213;-81
2022/03/07 04:19:11;;;;;;;8.40;3.30;;;;;;;1.55;47.94;97683.31;4950907;28;20176;-81
2022/03/07 04:21:39;;;;;;;4.97;2.85;;;;;;;1.56;47.94;97697.72;4975460;28;20248;-80
2022/03/07 04:24:05;;;;;;;5.75;2.88;;;;;;;1.79;47.80;97697.69;4949689;28;20194;-81
2022/03/07 04:26:31;;;;;;;4.80;2.85;;;;;;;1.82;47.34;97705.84;4984097;28;20339;-81
2022/03/07 04:28:56;;;;;;;4.20;2.92;;;;;;;1.26;48.42;97703.56;4981175;28;20235;-81
2022/03/07 04:31:22;;;;;;;7.07;2.97;;;;;;;1.59;47.85;97700.72;4967075;28;20297;-81
2022/03/07 04:33:47;;;;;;;6.53;3.17;;;;;;;1.54;47.99;97697.88;4953481;28;20280;-81
2022/03/07 04:36:14;;;;;;;4.55;2.90;;;;;;;1.09;48.85;97712.34;4964203;28;20199;-80
2022/03/07 04:38:39;;;;;;;5.50;3.25;;;;;;;1.53;47.78;97711.72;4963069;28;20276;-80
2022/03/07 04:41:04;;;;;;;5.00;2.83;;;;;;;1.25;48.21;97714.81;4996567;28;20248;-80
2022/03/07 04:43:30;;;;;;;5.03;2.78;;;;;;;1.53;47.64;97718.63;4946327;28;20722;-81
2022/03/07 04:45:55;;;;;;;6.80;3.25;;;;;;;1.40;47.98;97721.75;4992662;28;20193;-80
2022/03/07 04:48:21;;;;;;;6.10;3.28;;;;;;;0.97;48.92;97717.06;4966623;28;20263;-79
2022/03/07 04:50:47;;;;;;;5.35;2.88;;;;;;;1.55;48.54;97716.66;4962421;28;20198;-81
2022/03/07 04:53:12;;;;;;;5.82;3.20;;;;;;;1.47;47.44;97723.47;4949956;28;20711;-81
2022/03/07 04:55:37;;;;;;;5.45;2.88;;;;;;;1.26;48.21;97716.38;4983554;28;20413;-80
2022/03/07 04:58:04;;;;;;;4.82;3.22;;;;;;;1.40;48.55;97724.31;4981661;28;20667;-81
2022/03/07 05:00:30;;;;;;;5.18;2.95;;;;;;;1.34;48.60;97730.94;4946660;28;20607;-81
2022/03/07 05:02:55;;;;;;;4.15;2.60;;;;;;;1.19;48.66;97718.03;4949596;28;20283;-81
2022/03/07 05:05:21;;;;;;;4.57;2.53;;;;;;;1.54;48.02;97730.47;4979770;28;20230;-81
2022/03/07 05:07:49;;;;;;;5.70;3.70;;;;;;;1.47;48.45;97727.78;4966089;28;20185;-81
2022/03/07 05:10:16;;;;;;;4.20;2.58;;;;;;;1.58;47.86;97734.28;4993790;28;20209;-81
2022/03/07 05:12:41;;;;;;;5.47;3.70;;;;;;;1.47;47.78;97722.66;4952249;28;20292;-81
2022/03/07 05:15:07;;;;;;;5.60;3.15;;;;;;;1.48;48.07;97734.53;4966829;28;20678;-80
2022/03/07 05:17:44;;;;;;;5.90;3.03;;;;;;;0.81;48.94;97730.78;4961851;28;20731;-80
2022/03/07 05:20:11;;;;;;;4.93;3.10;;;;;;;1.33;48.19;97731.91;4981071;28;20175;-80
2022/03/07 05:22:36;;;;;;;6.85;3.45;;;;;;;1.18;48.44;97731.03;4964285;28;20172;-80
2022/03/07 05:25:04;;;;;;;6.05;3.17;;;;;;;0.95;49.13;97728.47;4962093;28;20218;-81
2022/03/07 05:27:29;;;;;;;5.32;2.92;;;;;;;1.42;48.48;97740.34;4962962;28;20310;-80
2022/03/07 05:29:55;;;;;;;6.63;3.03;;;;;;;1.46;47.99;97737.25;4982062;28;20171;-81
2022/03/07 05:32:20;;;;;;;4.30;2.70;;;;;;;1.60;47.80;97738.28;4965928;28;20350;-81
2022/03/07 05:34:45;;;;;;;4.28;3.00;;;;;;;1.53;47.56;97732.25;4974931;28;20268;-81
2022/03/07 05:37:11;;;;;;;5.53;3.10;;;;;;;1.24;48.58;97727.81;4980422;28;20089;-80
2022/03/07 05:39:36;;;;;;;7.45;3.10;;;;;;;1.20;48.72;97737.63;4980376;28;20199;-81
2022/03/07 05:42:02;;;;;;;5.07;2.88;;;;;;;1.16;48.19;97731.22;4946898;28;20183;-81
2022/03/07 05:44:27;;;;;;;5.00;3.28;;;;;;;1.04;48.85;97735.13;4964708;28;20686;-80
2022/03/07 05:46:53;;;;;;;6.55;3.20;;;;;;;1.30;48.75;97738.19;4945369;28;20284;-81
2022/03/07 05:49:18;;;;;;;5.93;3.35;;;;;;;1.33;48.54;97738.81;4967590;28;20216;-80
2022/03/07 05:51:44;;;;;;;4.35;2.67;;;;;;;0.92;49.40;97742.41;4977847;28;20656;-81
2022/03/07 05:54:10;;;;;;;4.82;3.30;;;;;;;1.13;48.97;97736.66;4981133;28;20675;-81
2022/03/07 05:56:35;;;;;;;7.13;3.25;;;;;;;1.00;48.99;97746.72;4949644;28;20779;-81
2022/03/07 05:59:00;;;;;;;6.25;3.88;;;;;;;1.44;47.92;97739.22;4966797;28;20191;-81
2022/03/07 06:01:26;;;;;;;7.30;3.50;;;;;;;1.24;48.19;97743.19;4969195;28;20403;-81
2022/03/07 06:03:51;;;;;;;5.53;3.30;;;;;;;1.12;48.31;97741.00;4979284;28;20660;-80
2022/03/07 06:06:17;;;;;;;5.15;3.25;;;;;;;0.72;49.22;97739.44;4951102;28;20855;-81
2022/03/07 06:08:42;;;;;;;9.48;4.35;;;;;;;0.72;49.30;97750.53;4975125;28;20287;-80
2022/03/07 06:11:08;;;;;;;9.13;4.07;;;;;;;0.92;48.74;97750.88;4930782;28;20144;-80
2022/03/07 06:13:34;;;;;;;6.00;3.88;;;;;;;1.33;47.85;97737.03;4979751;28;20245;-80
2022/03/07 06:15:59;;;;;;;9.40;3.70;;;;;;;1.25;47.50;97750.72;4981714;28;20210;-81
2022/03/07 06:18:25;;;;;;;7.40;3.78;;;;;;;1.07;47.96;97748.41;4967635;28;20255;-80
2022/03/07 06:20:50;;;;;;;6.70;3.92;;;;;;;1.16;47.34;97754.28;4942231;28;20435;-80
2022/03/07 06:23:16;;;;;;;6.15;3.95;;;;;;;0.95;47.98;97744.63;4964050;28;20201;-80
2022/03/07 06:25:41;;;;;;;7.78;4.25;;;;;;;0.64;48.20;97752.31;4969009;28;20292;-80
2022/03/07 06:28:07;;;;;;;7.45;4.15;;;;;;;1.09;48.13;97755.94;4962628;28;20182;-80
2022/03/07 06:30:32;;;;;;;7.47;3.60;;;;;;;1.28;47.01;97752.94;4945827;28;20181;-80
2022/03/07 06:32:57;;;;;;;8.60;4.35;;;;;;;0.92;47.53;97761.13;4981436;28;20582;-80
2022/03/07 06:35:23;;;;;;;8.18;3.97;;;;;;;1.27;47.37;97761.59;4963635;28;20311;-81
2022/03/07 06:37:50;;;;;;;7.88;3.75;;;;;;;1.31;46.70;97770.53;4957916;28;20203;-79
2022/03/07 06:40:16;;;;;;;7.47;4.47;;;;;;;1.16;47.04;97761.19;4962790;28;20211;-80
2022/03/07 06:42:43;;;;;;;7.72;4.35;;;;;;;1.10;47.11;97760.13;4942272;28;20177;-79
2022/03/07 06:45:12;;;;;;;8.93;4.50;;;;;;;1.35;46.78;97760.75;4981385;28;20296;-80
2022/03/07 06:47:38;;;;;;;6.47;3.70;;;;;;;1.33;46.42;97762.69;4968835;28;20550;-80
2022/03/07 06:50:03;;;;;;;7.63;3.95;;;;;;;1.26;46.72;97760.00;4980923;28;20194;-82
2022/03/07 06:52:29;;;;;;;9.05;4.57;;;;;;;0.99;47.17;97771.53;4965648;28;20752;-80
2022/03/07 06:54:54;;;;;;;6.75;3.90;;;;;;;1.18;46.98;97777.22;4952198;28;20093;-80
2022/03/07 06:57:21;;;;;;;7.40;3.83;;;;;;;1.06;47.43;97771.66;4984167;28;20656;-80
2022/03/07 06:59:47;;;;;;;9.05;4.53;;;;;;;1.26;46.74;97772.81;4982817;28;20190;-80
2022/03/07 07:02:12;;;;;;;10.38;4.88;;;;;;;1.47;46.13;97776.53;4966877;28;20255;-80
2022/03/07 07:04:37;;;;;;;10.07;4.78;;;;;;;1.46;46.46;97774.97;4971302;28;20138;-81
2022/03/07 07:07:03;;;;;;;9.50;4.40;;;;;;;1.31;46.26;97780.03;4955593;28;20281;-80
2022/03/07 07:09:28;;;;;;;8.90;4.65;;;;;;;1.41;46.71;97784.94;4952881;28;20531;-81
2022/03/07 07:11:53;;;;;;;8.88;4.45;;;;;;;1.31;46.48;97783.38;4972347;28;20195;-79
2022/03/07 07:14:19;;;;;;;9.00;5.22;;;;;;;1.31;46.87;97791.06;5000927;28;20167;-79
2022/03/07 07:16:44;;;;;;;8.65;4.80;;;;;;;1.49;45.98;97785.69;4970211;28;20262;-80
2022/03/07 07:19:10;;;;;;;6.68;4.28;;;;;;;1.28;46.17;97785.47;4965020;28;20290;-79
2022/03/07 07:21:35;;;;;;;8.00;4.00;;;;;;;1.66;46.24;97786.38;4978702;28;20231;-81
2022/03/07 07:24:00;;;;;;;8.65;4.45;;;;;;;1.60;46.07;97781.13;4965912;28;20240;-78
2022/03/07 07:26:26;;;;;;;8.98;5.05;;;;;;;1.17;46.32;97785.88;4986149;28;20752;-82
2022/03/07 07:28:52;;;;;;;8.18;4.35;;;;;;;1.27;46.04;97792.38;4953430;28;20728;-80
2022/03/07 07:31:17;;;;;;;7.00;4.28;;;;;;;1.38;46.37;97795.53;5002843;28;20267;-80
2022/03/07 07:33:43;;;;;;;9.60;5.13;;;;;;;1.65;45.20;97802.72;4971955;28;20215;-80
2022/03/07 07:36:08;;;;;;;8.50;4.90;;;;;;;1.75;45.12;97793.97;4977340;28;20249;-79
2022/03/07 07:38:34;;;;;;;8.18;4.53;;;;;;;1.65;45.08;97786.53;4987909;28;20180;-80
2022/03/07 07:40:59;;;;;;;12.02;4.63;;;;;;;1.33;45.28;97796.03;4960624;28;20102;-80
2022/03/07 07:43:24;;;;;;;9.77;4.85;;;;;;;1.67;45.50;97793.06;4963548;28;20358;-79
2022/03/07 07:45:50;;;;;;;7.72;4.30;;;;;;;0.95;45.96;97798.47;4955338;28;20268;-79
2022/03/07 07:48:15;;;;;;;7.63;4.65;;;;;;;1.48;45.10;97803.81;4982709;28;20202;-79
2022/03/07 07:50:40;;;;;;;7.80;4.32;;;;;;;1.83;44.41;97809.31;4984542;28;20190;-80
2022/03/07 07:53:06;;;;;;;11.27;4.55;;;;;;;1.56;44.45;97806.31;4998608;28;20773;-80
2022/03/07 07:55:32;;;;;;;9.43;5.40;;;;;;;1.44;44.74;97812.78;4967999;28;20275;-79
2022/03/07 07:57:57;;;;;;;8.48;4.25;;;;;;;1.84;44.34;97813.50;4947396;28;20164;-80
2022/03/07 08:00:23;;;;;;;10.77;4.85;;;;;;;1.82;43.78;97812.88;4978257;28;20592;-80
2022/03/07 08:02:49;;;;;;;8.63;4.65;;;;;;;1.88;43.63;97817.31;4985772;28;20290;-79
2022/03/07 08:05:16;;;;;;;9.75;4.95;;;;;;;2.06;42.94;97811.88;4968494;28;20744;-79
2022/03/07 08:07:43;;;;;;;7.88;4.35;;;;;;;1.90;43.12;97815.38;4965090;28;20156;-78
2022/03/07 08:10:13;;;;;;;9.43;4.72;;;;;;;1.59;43.50;97813.66;4963745;28;20307;-79
2022/03/07 08:12:39;;;;;;;7.40;4.28;;;;;;;1.97;42.52;97805.19;4983280;28;20648;-79
2022/03/07 08:15:05;;;;;;;7.07;4.22;;;;;;;2.60;42.01;97816.00;4963969;28;20190;-80
2022/03/07 08:17:31;;;;;;;10.02;4.88;;;;;;;2.90;41.07;97816.00;4986019;28;20284;-79
2022/03/07 08:19:57;;;;;;;6.57;4.75;;;;;;;2.43;39.73;97810.25;4957077;28;20196;-77
2022/03/07 08:22:22;;;;;;;7.97;4.70;;;;;;;2.55;40.37;97819.13;4962215;28;20280;-79
2022/03/07 08:24:47;;;;;;;9.07;4.57;;;;;;;2.97;39.59;97819.47;4969160;28;20222;-78
2022/03/07 08:27:13;;;;;;;9.00;4.30;;;;;;;2.72;39.30;97816.38;4967803;28;20199;-80
2022/03/07 08:29:38;;;;;;;10.38;4.85;;;;;;;2.14;39.52;97808.44;4957117;28;20194;-77
2022/03/07 08:32:06;;;;;;;9.35;4.88;;;;;;;1.93;40.07;97811.66;4982106;28;20187;-77
2022/03/07 08:34:32;;;;;;;7.93;4.40;;;;;;;2.00;40.46;97825.41;4967359;28;20652;-80
2022/03/07 08:36:57;;;;;;;8.30;5.25;;;;;;;2.43;39.83;97826.47;4963010;28;20198;-79
2022/03/07 08:39:23;;;;;;;8.98;5.22;;;;;;;2.04;40.00;97829.25;4964358;28;20285;-79
2022/03/07 08:41:48;;;;;;;6.70;4.45;;;;;;;2.43;39.18;97834.19;4944237;28;20220;-78
2022/03/07 08:44:14;;;;;;;6.80;4.03;;;;;;;2.20;38.93;97826.53;4985042;28;20681;-79
2022/03/07 08:46:39;;;;;;;8.45;4.57;;;;;;;2.58;39.02;97826.47;4980655;28;20117;-78
2022/03/07 08:49:05;;;;;;;8.43;4.85;;;;;;;2.38;39.23;97823.63;4997849;28;20150;-78
2022/03/07 08:51:30;;;;;;;7.57;4.15;;;;;;;2.45;38.92;97823.72;4960613;28;20179;-79
2022/03/07 08:53:56;;;;;;;6.40;4.00;;;;;;;2.54;38.67;97822.66;4978079;28;20204;-79
2022/03/07 08:56:21;;;;;;;8.63;4.60;;;;;;;3.28;38.08;97828.72;4966384;28;20451;-78
2022/03/07 08:58:46;;;;;;;8.95;4.63;;;;;;;3.30;37.77;97829.34;4982409;28;20202;-76
2022/03/07 09:01:12;;;;;;;8.00;5.00;;;;;;;3.80;37.59;97822.50;4962843;28;20694;-80
2022/03/07 09:03:53;;;;;;;7.22;4.40;;;;;;;3.27;37.39;97825.34;4960963;28;20289;-81
2022/03/07 09:06:19;;;;;;;8.43;4.20;;;;;;;3.77;37.22;97817.75;4968010;28;20201;-80
2022/03/07 09:08:44;;;;;;;8.15;4.80;;;;;;;3.62;37.22;97810.06;4965316;28;20314;-80
2022/03/07 09:11:09;;;;;;;10.52;5.57;;;;;;;3.19;37.53;97813.38;4983813;28;20198;-80
2022/03/07 09:13:35;;;;;;;8.52;4.80;;;;;;;3.80;37.34;97832.81;4950591;28;20167;-79
2022/03/07 09:16:00;;;;;;;8.60;4.60;;;;;;;4.04;37.11;97825.69;4965980;28;20625;-79
2022/03/07 09:18:27;;;;;;;11.23;4.93;;;;;;;3.58;37.34;97844.06;4978355;28;20199;-82
2022/03/07 09:20:52;;;;;;;8.00;4.75;;;;;;;4.00;36.71;97834.78;4973752;28;20707;-82
2022/03/07 09:23:17;;;;;;;8.10;4.65;;;;;;;4.42;36.70;97843.41;4948784;28;20355;-82
2022/03/07 09:25:43;;;;;;;8.50;4.45;;;;;;;4.28;35.70;97843.31;4981703;28;20739;-82
2022/03/07 09:28:08;;;;;;;7.70;4.88;;;;;;;4.10;36.65;97848.13;4981413;28;20275;-80
2022/03/07 09:30:33;;;;;;;8.02;4.97;;;;;;;4.54;35.51;97857.38;4981084;28;20214;-82
2022/03/07 09:33:03;;;;;;;9.02;4.60;;;;;;;4.15;35.53;97850.13;4942334;28;20207;-81
2022/03/07 09:35:30;;;;;;;7.75;4.63;;;;;;;4.42;35.86;97848.56;4969311;28;20634;-81
2022/03/07 09:37:55;;;;;;;8.30;5.07;;;;;;;4.00;36.42;97848.44;4980130;28;20248;-79
2022/03/07 09:40:21;;;;;;;9.18;5.18;;;;;;;4.28;35.60;97853.63;5001122;28;20284;-81
2022/03/07 09:42:46;;;;;;;9.55;5.97;;;;;;;4.46;35.69;97850.59;4996261;28;20024;-81
2022/03/07 09:45:13;;;;;;;9.88;6.40;;;;;;;4.46;35.37;97860.09;4983640;28;20787;-80
2022/03/07 09:47:39;;;;;;;8.63;4.95;;;;;;;4.77;35.50;97838.28;5014768;28;20043;-80
2022/03/07 09:50:05;;;;;;;10.93;5.75;;;;;;;4.37;36.28;97843.16;4962941;28;20040;-80
2022/03/07 09:52:31;;;;;;;10.30;5.50;;;;;;;4.59;35.88;97852.47;4977701;28;20024;-78
2022/03/07 09:54:58;;;;;;;10.18;6.05;;;;;;;4.63;35.34;97845.16;4976269;28;20035;-79
2022/03/07 09:57:24;;;;;;;8.73;5.70;;;;;;;4.78;35.40;97845.00;4973416;28;20619;-80
2022/03/07 09:59:50;;;;;;;7.45;4.97;;;;;;;5.19;35.73;97841.63;4985054;28;20797;-81
2022/03/07 10:02:22;;;;;;;8.25;5.53;;;;;;;5.49;34.85;97836.97;4999910;28;20115;-81
2022/03/07 10:04:48;;;;;;;9.15;5.72;;;;;;;5.54;34.90;97836.38;4963741;28;20028;-81
2022/03/07 10:07:13;;;;;;;12.00;6.30;;;;;;;5.43;34.64;97843.72;4981293;28;20028;-79
2022/03/07 10:09:40;;;;;;;9.90;5.63;;;;;;;5.10;34.50;97837.63;4997198;28;20020;-79
2022/03/07 10:12:06;;;;;;;11.75;6.15;;;;;;;5.00;35.25;97840.56;4963564;28;20022;-81
2022/03/07 10:14:42;;;;;;;10.02;5.88;;;;;;;5.38;34.54;97830.59;4966950;28;20032;-80
2022/03/07 10:17:21;;;;;;;12.57;7.00;;;;;;;5.80;34.65;97825.28;4980186;28;20874;-82
2022/03/07 10:19:47;;;;;;;11.35;6.13;;;;;;;5.88;33.62;97834.63;4969436;28;20016;-81
2022/03/07 10:22:34;;;;;;;12.02;6.72;;;;;;;5.90;33.82;97828.28;4978326;28;20123;-82
2022/03/07 10:25:06;;;;;;;11.73;6.63;;;;;;;5.02;35.26;97833.41;5012452;28;20051;-80
2022/03/07 10:27:34;;;;;;;10.85;7.15;;;;;;;4.86;35.33;97834.53;4960239;28;20016;-81
2022/03/07 10:30:00;;;;;;;36.63;15.48;;;;;;;4.48;35.83;97824.59;4980353;28;20020;-80
2022/03/07 10:32:26;;;;;;;9.82;6.82;;;;;;;5.93;34.83;97840.00;4983793;28;20012;-81
2022/03/07 10:34:51;;;;;;;10.55;5.82;;;;;;;5.99;34.14;97828.91;4986082;28;20105;-78
2022/03/07 10:37:17;;;;;;;9.70;5.82;;;;;;;6.05;33.43;97835.88;5011777;28;20931;-81
2022/03/07 10:39:52;;;;;;;12.98;7.10;;;;;;;5.78;33.57;97830.66;4968553;28;20128;-80
2022/03/07 10:42:19;;;;;;;8.98;5.80;;;;;;;6.11;33.60;97844.63;5001640;28;20881;-82
2022/03/07 10:44:44;;;;;;;12.38;7.63;;;;;;;6.12;33.10;97836.69;5001715;28;20036;-81
2022/03/07 10:47:18;;;;;;;16.38;8.70;;;;;;;6.16;33.74;97837.88;4997963;28;20888;-82
2022/03/07 10:50:06;;;;;;;13.02;7.13;;;;;;;5.07;34.80;97844.78;4983350;28;20031;-78
2022/03/07 10:52:41;;;;;;;10.20;6.45;;;;;;;5.37;34.84;97834.16;4991736;28;20036;-81
2022/03/07 10:55:10;;;;;;;9.88;6.03;;;;;;;5.54;34.68;97834.59;4984152;28;20016;-78
2022/03/07 10:57:37;;;;;;;8.38;6.30;;;;;;;6.00;33.40;97838.28;5005317;28;20040;-81
2022/03/07 11:00:10;;;;;;;9.52;5.93;;;;;;;5.64;34.37;97834.22;4974829;28;20080;-82
2022/03/07 11:02:41;;;;;;;7.30;5.25;;;;;;;5.96;33.56;97832.72;4988467;28;20039;-83
2022/03/07 11:05:07;;;;;;;8.52;6.00;;;;;;;6.15;33.70;97838.88;4995703;28;20031;-80
2022/03/07 11:07:45;;;;;;;9.18;5.70;;;;;;;6.48;33.35;97819.94;4988485;28;20123;-82
2022/03/07 11:10:11;;;;;;;9.85;5.72;;;;;;;6.87;32.88;97817.44;4974764;28;20036;-82
2022/03/07 11:12:38;;;;;;;12.43;7.10;;;;;;;6.53;32.32;97822.72;5003643;28;20020;-81
2022/03/07 11:15:12;;;;;;;9.57;5.90;;;;;;;5.62;33.62;97820.69;4964187;28;20731;-81
2022/03/07 11:17:49;;;;;;;11.30;7.10;;;;;;;5.69;33.13;97810.38;5002368;28;20098;-82
2022/03/07 11:20:16;;;;;;;10.15;6.43;;;;;;;6.48;32.85;97814.78;5001542;28;20157;-81
2022/03/07 11:22:42;;;;;;;10.05;5.97;;;;;;;6.90;32.59;97804.88;4984072;28;20071;-83
2022/03/07 11:25:09;;;;;;;7.85;5.75;;;;;;;7.43;31.06;97813.44;5003484;28;20056;-81
2022/03/07 11:27:37;;;;;;;9.38;6.60;;;;;;;6.15;32.43;97812.22;5012582;28;20028;-78
2022/03/07 11:30:14;;;;;;;9.57;5.85;;;;;;;5.60;32.71;97804.59;4959172;28;20043;-79
2022/03/07 11:32:44;;;;;;;11.85;6.50;;;;;;;6.07;32.21;97808.03;4996688;28;20064;-81
2022/03/07 11:35:11;;;;;;;9.13;6.00;;;;;;;6.65;32.28;97819.50;4971911;28;20044;-79